Time;durP1;ratioP1;P1;durP2;ratioP2;P2;SDS_P1;SDS_P2;PMS_P1;PMS_P2;Temp;Humidity;BMP_temperature;BMP_pressure;BME280_temperature;BME280_humidity;BME280_pressure;Samples;Min_cycle;Max_cycle;Signal;HPM_P1;HPM_P2
2022/10/20 00:01:17;;;;;;;23.65;11.32;;;;;;;;;;5075812;28;20060;-57
2022/10/20 00:03:43;;;;;;;18.80;11.02;;;;;;;;;;5088892;28;20012;-56
2022/10/20 00:06:09;;;;;;;19.67;10.77;;;;;;;;;;5091315;28;20044;-56
2022/10/20 00:08:34;;;;;;;18.90;10.70;;;;;;;;;;5089550;28;20024;-57
2022/10/20 00:10:59;;;;;;;20.80;12.00;;;;;;;;;;5088923;28;20127;-56
2022/10/20 00:13:25;;;;;;;18.13;11.60;;;;;;;;;;5094280;28;20098;-57
2022/10/20 00:15:53;;;;;;;22.05;11.35;;;;;;;;;;5092890;28;20030;-56
2022/10/20 00:18:20;;;;;;;21.52;11.35;;;;;;;;;;5096870;28;20088;-56
2022/10/20 00:20:45;;;;;;;23.35;11.30;;;;;;;;;;5082474;28;20025;-57
2022/10/20 00:23:10;;;;;;;25.30;11.45;;;;;;;;;;5086838;28;20020;-57
2022/10/20 00:25:35;;;;;;;20.98;11.02;;;;;;;;;;5091788;28;20012;-56
2022/10/20 00:28:01;;;;;;;20.75;11.05;;;;;;;;;;5091354;28;20099;-56
2022/10/20 00:30:26;;;;;;;18.25;11.38;;;;;;;;;;5090001;28;20095;-56
2022/10/20 00:32:51;;;;;;;18.63;11.68;;;;;;;;;;5090428;28;20073;-56
2022/10/20 00:35:16;;;;;;;22.40;11.43;;;;;;;;;;5091153;28;20070;-56
2022/10/20 00:37:41;;;;;;;18.00;11.13;;;;;;;;;;5089051;28;20027;-56
2022/10/20 00:40:07;;;;;;;21.45;11.20;;;;;;;;;;5092525;28;20028;-57
2022/10/20 00:42:32;;;;;;;23.50;12.35;;;;;;;;;;5088306;28;20111;-55
2022/10/20 00:44:58;;;;;;;27.50;11.05;;;;;;;;;;5092347;28;20107;-57
2022/10/20 00:47:36;;;;;;;20.95;11.38;;;;;;;;;;5086559;28;20036;-57
2022/10/20 00:50:04;;;;;;;23.83;11.98;;;;;;;;;;5097344;28;20390;-57
2022/10/20 00:52:30;;;;;;;21.40;12.10;;;;;;;;;;5088714;28;20511;-57
2022/10/20 00:54:55;;;;;;;28.85;12.00;;;;;;;;;;5091566;28;20024;-57
2022/10/20 00:57:20;;;;;;;19.88;11.65;;;;;;;;;;5088948;28;20380;-57
2022/10/20 00:59:45;;;;;;;21.15;12.45;;;;;;;;;;5092953;28;20083;-57
2022/10/20 01:02:10;;;;;;;20.15;11.75;;;;;;;;;;5092998;28;20008;-56
2022/10/20 01:04:36;;;;;;;20.02;10.77;;;;;;;;;;5067621;28;20016;-57
2022/10/20 01:07:01;;;;;;;31.88;12.02;;;;;;;;;;5094898;28;20015;-56
2022/10/20 01:09:26;;;;;;;20.80;11.50;;;;;;;;;;5091960;28;20076;-56
2022/10/20 01:12:07;;;;;;;24.38;11.65;;;;;;;;;;5089664;28;20408;-57
2022/10/20 01:14:34;;;;;;;19.63;11.55;;;;;;;;;;5090917;28;20080;-58
2022/10/20 01:16:59;;;;;;;20.90;11.52;;;;;;;;;;5094717;28;20466;-57
2022/10/20 01:19:27;;;;;;;21.90;12.15;;;;;;;;;;5087754;28;20023;-56
2022/10/20 01:21:53;;;;;;;22.92;11.57;;;;;;;;;;5086812;28;20020;-57
2022/10/20 01:24:18;;;;;;;22.88;11.95;;;;;;;;;;5095372;28;20055;-57
2022/10/20 01:26:54;;;;;;;20.80;11.18;;;;;;;;;;5091671;28;20008;-58
2022/10/20 01:29:19;;;;;;;21.23;12.65;;;;;;;;;;5084975;28;20024;-58
2022/10/20 01:31:48;;;;;;;27.42;12.40;;;;;;;;;;5096772;28;20015;-57
2022/10/20 01:34:18;;;;;;;24.30;13.02;;;;;;;;;;5098578;28;20011;-57
2022/10/20 01:36:53;;;;;;;30.15;12.80;;;;;;;;;;5087584;28;20056;-58
2022/10/20 01:39:28;;;;;;;28.42;13.52;;;;;;;;;;5090065;28;20036;-56
2022/10/20 01:41:55;;;;;;;23.38;12.25;;;;;;;;;;5083403;28;20103;-58
2022/10/20 01:44:21;;;;;;;23.25;13.07;;;;;;;;;;5090617;28;20031;-57
2022/10/20 01:46:46;;;;;;;25.98;13.23;;;;;;;;;;5087756;28;20024;-55
2022/10/20 01:49:12;;;;;;;29.08;13.15;;;;;;;;;;5088385;28;20042;-58
2022/10/20 01:51:37;;;;;;;27.10;12.93;;;;;;;;;;5084883;28;20031;-54
2022/10/20 01:54:02;;;;;;;30.25;13.68;;;;;;;;;;5088824;28;20032;-56
2022/10/20 01:56:38;;;;;;;25.42;14.15;;;;;;;;;;5093327;28;20425;-56
2022/10/20 01:59:18;;;;;;;22.65;12.95;;;;;;;;;;5086431;28;20076;-56
2022/10/20 02:01:48;;;;;;;25.92;14.00;;;;;;;;;;5086234;28;20012;-56
2022/10/20 02:04:13;;;;;;;26.02;13.07;;;;;;;;;;5085681;28;20080;-56
2022/10/20 02:06:43;;;;;;;28.63;13.38;;;;;;;;;;5082975;28;20048;-56
2022/10/20 02:09:16;;;;;;;25.88;13.80;;;;;;;;;;5091065;28;20076;-56
2022/10/20 02:11:49;;;;;;;23.10;12.73;;;;;;;;;;5082250;28;20386;-56
2022/10/20 02:14:15;;;;;;;25.33;14.13;;;;;;;;;;5081436;28;20024;-56
2022/10/20 02:16:47;;;;;;;25.33;13.27;;;;;;;;;;5078954;28;20020;-56
2022/10/20 02:19:13;;;;;;;26.10;12.60;;;;;;;;;;5092804;28;20062;-56
2022/10/20 02:21:38;;;;;;;24.23;13.00;;;;;;;;;;5084771;28;20020;-55
2022/10/20 02:24:04;;;;;;;23.98;12.90;;;;;;;;;;5086709;28;20028;-56
2022/10/20 02:26:31;;;;;;;26.42;13.45;;;;;;;;;;5089218;28;20489;-56
2022/10/20 02:28:58;;;;;;;21.83;12.95;;;;;;;;;;5085542;28;20051;-56
2022/10/20 02:31:23;;;;;;;24.13;12.80;;;;;;;;;;5090015;28;20027;-55
2022/10/20 02:33:48;;;;;;;28.15;13.25;;;;;;;;;;5081768;28;20020;-56
2022/10/20 02:36:17;;;;;;;21.88;11.48;;;;;;;;;;5094360;28;20051;-56
2022/10/20 02:38:42;;;;;;;24.55;13.05;;;;;;;;;;5084203;28;20035;-57
2022/10/20 02:41:08;;;;;;;26.58;13.77;;;;;;;;;;5092412;28;20478;-55
2022/10/20 02:43:33;;;;;;;22.02;13.15;;;;;;;;;;5089668;28;20026;-55
2022/10/20 02:45:58;;;;;;;27.10;13.85;;;;;;;;;;5093517;28;20016;-55
2022/10/20 02:48:23;;;;;;;23.42;13.25;;;;;;;;;;5089075;28;20038;-55
2022/10/20 02:50:49;;;;;;;30.67;13.48;;;;;;;;;;5084326;28;20442;-56
2022/10/20 02:53:14;;;;;;;28.45;13.85;;;;;;;;;;5091806;28;20022;-56
2022/10/20 02:55:40;;;;;;;26.35;14.52;;;;;;;;;;5086569;28;20020;-55
2022/10/20 02:58:05;;;;;;;24.45;13.50;;;;;;;;;;5084861;28;20025;-56
2022/10/20 03:00:30;;;;;;;25.52;12.82;;;;;;;;;;5083351;28;20100;-55
2022/10/20 03:02:56;;;;;;;23.90;12.55;;;;;;;;;;5091608;28;20878;-56
2022/10/20 03:05:21;;;;;;;25.52;13.48;;;;;;;;;;5070499;28;20071;-55
2022/10/20 03:07:46;;;;;;;27.35;13.32;;;;;;;;;;5082444;28;20020;-56
2022/10/20 03:10:11;;;;;;;24.20;14.48;;;;;;;;;;5079202;28;20445;-55
2022/10/20 03:12:37;;;;;;;24.67;12.75;;;;;;;;;;5078423;28;20108;-56
2022/10/20 03:15:02;;;;;;;24.10;13.10;;;;;;;;;;5093187;28;20143;-56
2022/10/20 03:17:27;;;;;;;29.30;13.15;;;;;;;;;;5089468;28;20060;-56
2022/10/20 03:19:52;;;;;;;25.45;13.23;;;;;;;;;;5074166;28;20028;-54
2022/10/20 03:22:18;;;;;;;23.98;14.15;;;;;;;;;;5091403;28;20044;-55
2022/10/20 03:24:43;;;;;;;29.83;14.98;;;;;;;;;;5085396;28;20031;-56
2022/10/20 03:27:08;;;;;;;35.15;14.60;;;;;;;;;;5093307;28;20028;-56
2022/10/20 03:29:33;;;;;;;32.60;14.18;;;;;;;;;;5086957;28;20099;-56
2022/10/20 03:31:58;;;;;;;34.83;14.63;;;;;;;;;;5092776;28;20027;-56
2022/10/20 03:34:24;;;;;;;27.70;14.02;;;;;;;;;;5084829;28;20466;-56
2022/10/20 03:36:49;;;;;;;27.75;14.52;;;;;;;;;;5086965;28;20791;-55
2022/10/20 03:39:14;;;;;;;28.55;12.95;;;;;;;;;;5092587;28;20032;-55
2022/10/20 03:41:39;;;;;;;28.60;13.00;;;;;;;;;;5089097;28;20020;-55
2022/10/20 03:44:05;;;;;;;19.98;12.77;;;;;;;;;;5079979;28;20024;-56
2022/10/20 03:46:30;;;;;;;27.35;13.60;;;;;;;;;;5089685;28;20107;-56
2022/10/20 03:48:55;;;;;;;33.10;15.15;;;;;;;;;;5082426;28;20024;-56
2022/10/20 03:51:20;;;;;;;24.40;14.05;;;;;;;;;;5074025;28;20028;-55
2022/10/20 03:53:46;;;;;;;25.83;13.88;;;;;;;;;;5092245;28;20470;-56
2022/10/20 03:56:11;;;;;;;22.73;13.93;;;;;;;;;;5083800;28;20024;-56
2022/10/20 03:58:37;;;;;;;26.00;13.15;;;;;;;;;;5082590;28;20059;-55
2022/10/20 04:01:02;;;;;;;24.10;13.27;;;;;;;;;;5089258;28;20355;-56
2022/10/20 04:03:27;;;;;;;23.52;13.93;;;;;;;;;;5090707;28;20061;-56
2022/10/20 04:05:52;;;;;;;22.38;13.45;;;;;;;;;;5091892;28;20036;-56
2022/10/20 04:08:18;;;;;;;20.20;12.43;;;;;;;;;;5088619;28;20103;-55
2022/10/20 04:10:43;;;;;;;23.77;12.88;;;;;;;;;;5092126;28;20016;-56
2022/10/20 04:13:08;;;;;;;24.13;13.77;;;;;;;;;;5093953;28;20032;-55
2022/10/20 04:15:33;;;;;;;28.42;14.43;;;;;;;;;;5087790;28;20020;-55
2022/10/20 04:17:58;;;;;;;26.95;15.02;;;;;;;;;;5088573;28;20054;-54
2022/10/20 04:20:24;;;;;;;28.55;14.60;;;;;;;;;;5089145;28;20021;-57
2022/10/20 04:22:49;;;;;;;31.40;15.27;;;;;;;;;;5083512;28;20078;-56
2022/10/20 04:25:14;;;;;;;28.60;13.85;;;;;;;;;;5076937;28;20466;-56
2022/10/20 04:27:40;;;;;;;24.88;14.20;;;;;;;;;;5080220;28;21386;-56
2022/10/20 04:30:05;;;;;;;32.05;14.65;;;;;;;;;;5092380;28;20016;-56
2022/10/20 04:32:30;;;;;;;23.08;13.25;;;;;;;;;;5095492;28;20020;-57
2022/10/20 04:34:56;;;;;;;21.15;12.60;;;;;;;;;;5092077;28;20043;-55
2022/10/20 04:37:21;;;;;;;22.40;14.00;;;;;;;;;;5090862;28;20025;-55
2022/10/20 04:39:46;;;;;;;26.60;13.88;;;;;;;;;;5087920;28;20028;-56
2022/10/20 04:42:11;;;;;;;20.70;12.68;;;;;;;;;;5093182;28;20103;-56
2022/10/20 04:44:37;;;;;;;25.75;12.60;;;;;;;;;;5079690;28;20101;-56
2022/10/20 04:47:02;;;;;;;31.73;12.73;;;;;;;;;;5091529;28;20051;-56
2022/10/20 04:49:27;;;;;;;25.17;13.18;;;;;;;;;;5091366;28;20362;-56
2022/10/20 04:51:52;;;;;;;23.13;12.70;;;;;;;;;;5088394;28;20020;-57
2022/10/20 04:54:17;;;;;;;25.38;12.70;;;;;;;;;;5091920;28;20068;-56
2022/10/20 04:56:43;;;;;;;25.45;12.35;;;;;;;;;;5085433;28;20022;-56
2022/10/20 04:59:08;;;;;;;28.85;13.48;;;;;;;;;;5089839;28;20074;-56
2022/10/20 05:01:33;;;;;;;27.27;13.00;;;;;;;;;;5074345;28;20563;-55
2022/10/20 05:03:58;;;;;;;24.52;13.07;;;;;;;;;;5088974;28;20059;-56
2022/10/20 05:06:27;;;;;;;24.70;13.57;;;;;;;;;;5088704;28;20111;-56
2022/10/20 05:08:54;;;;;;;30.85;13.35;;;;;;;;;;5089059;28;20825;-56
2022/10/20 05:11:20;;;;;;;23.55;13.82;;;;;;;;;;5089513;28;20020;-56
2022/10/20 05:13:45;;;;;;;24.13;12.38;;;;;;;;;;5097905;28;20041;-57
2022/10/20 05:16:10;;;;;;;31.10;13.35;;;;;;;;;;5090041;28;20130;-56
2022/10/20 05:18:36;;;;;;;31.80;13.23;;;;;;;;;;5081093;28;20568;-56
2022/10/20 05:21:04;;;;;;;23.05;13.75;;;;;;;;;;5089794;28;20395;-54
2022/10/20 05:23:30;;;;;;;22.25;12.43;;;;;;;;;;5088758;28;20051;-56
2022/10/20 05:25:55;;;;;;;23.10;12.50;;;;;;;;;;5091209;28;20637;-55
2022/10/20 05:28:20;;;;;;;23.55;12.57;;;;;;;;;;5087581;28;20464;-55
2022/10/20 05:30:45;;;;;;;27.33;13.50;;;;;;;;;;5082565;28;20016;-56
2022/10/20 05:33:11;;;;;;;26.00;14.35;;;;;;;;;;5092815;28;20034;-55
2022/10/20 05:35:36;;;;;;;28.02;13.65;;;;;;;;;;5082503;28;20027;-56
2022/10/20 05:38:01;;;;;;;26.15;13.20;;;;;;;;;;5085643;28;20033;-55
2022/10/20 05:40:26;;;;;;;25.00;12.60;;;;;;;;;;5086968;28;20114;-56
2022/10/20 05:42:51;;;;;;;23.40;13.15;;;;;;;;;;5088368;28;20632;-56
2022/10/20 05:45:17;;;;;;;37.53;13.85;;;;;;;;;;5089296;28;20020;-56
2022/10/20 05:47:45;;;;;;;30.35;13.38;;;;;;;;;;5093248;28;20031;-55
2022/10/20 05:50:11;;;;;;;21.30;12.52;;;;;;;;;;5088993;28;20046;-56
2022/10/20 05:52:36;;;;;;;22.58;13.23;;;;;;;;;;5089452;28;20623;-56
2022/10/20 05:55:02;;;;;;;31.05;12.77;;;;;;;;;;5088777;28;20031;-56
2022/10/20 05:57:27;;;;;;;29.98;13.65;;;;;;;;;;5090214;28;20034;-56
2022/10/20 05:59:52;;;;;;;32.95;13.38;;;;;;;;;;5089503;28;20042;-55
2022/10/20 06:02:17;;;;;;;38.95;14.57;;;;;;;;;;5093160;28;20034;-56
2022/10/20 06:04:43;;;;;;;28.83;12.93;;;;;;;;;;5085189;28;20058;-56
2022/10/20 06:07:11;;;;;;;31.25;12.82;;;;;;;;;;5085676;28;20377;-56
2022/10/20 06:09:36;;;;;;;30.80;14.07;;;;;;;;;;5085452;28;20024;-55
2022/10/20 06:12:01;;;;;;;33.80;13.68;;;;;;;;;;5076392;28;20021;-55
2022/10/20 06:14:27;;;;;;;28.38;14.82;;;;;;;;;;5088753;28;20375;-56
2022/10/20 06:16:52;;;;;;;21.15;13.05;;;;;;;;;;5082008;28;20408;-55
2022/10/20 06:19:17;;;;;;;24.52;12.85;;;;;;;;;;5088950;28;20133;-55
2022/10/20 06:21:43;;;;;;;23.50;12.80;;;;;;;;;;5081253;28;20355;-55
2022/10/20 06:24:08;;;;;;;33.92;12.93;;;;;;;;;;5096709;28;20027;-56
2022/10/20 06:26:35;;;;;;;27.35;12.23;;;;;;;;;;5086553;28;20103;-58
2022/10/20 06:29:00;;;;;;;23.85;12.95;;;;;;;;;;5082369;28;20058;-56
2022/10/20 06:31:26;;;;;;;28.77;13.23;;;;;;;;;;5089900;28;20031;-57
2022/10/20 06:33:52;;;;;;;29.73;13.57;;;;;;;;;;5082532;28;20078;-57
2022/10/20 06:36:17;;;;;;;26.77;13.70;;;;;;;;;;5087378;28;20425;-56
2022/10/20 06:38:42;;;;;;;24.63;13.30;;;;;;;;;;5088289;28;20482;-56
2022/10/20 06:41:09;;;;;;;27.25;13.70;;;;;;;;;;5097400;28;20371;-57
2022/10/20 06:43:34;;;;;;;29.10;13.60;;;;;;;;;;5085142;28;20032;-57
2022/10/20 06:46:00;;;;;;;28.42;14.57;;;;;;;;;;5090231;28;20016;-56
2022/10/20 06:48:25;;;;;;;24.67;12.70;;;;;;;;;;5083016;28;20027;-57
2022/10/20 06:51:00;;;;;;;23.10;12.60;;;;;;;;;;5089402;28;20088;-57
2022/10/20 06:53:26;;;;;;;24.00;12.23;;;;;;;;;;5090117;28;20378;-56
2022/10/20 06:55:55;;;;;;;19.77;12.45;;;;;;;;;;5087918;28;20042;-56
2022/10/20 06:58:20;;;;;;;24.53;12.50;;;;;;;;;;5081685;28;20037;-57
2022/10/20 07:00:46;;;;;;;22.23;12.50;;;;;;;;;;5086034;28;20367;-56
2022/10/20 07:03:11;;;;;;;25.08;11.80;;;;;;;;;;5086385;28;20537;-56
2022/10/20 07:05:36;;;;;;;17.75;11.27;;;;;;;;;;5087582;28;20135;-56
2022/10/20 07:08:01;;;;;;;19.50;11.25;;;;;;;;;;5085630;28;20032;-57
2022/10/20 07:10:27;;;;;;;20.40;11.55;;;;;;;;;;5082867;28;20053;-57
2022/10/20 07:12:52;;;;;;;20.95;10.73;;;;;;;;;;5089560;28;20039;-57
2022/10/20 07:15:17;;;;;;;27.85;12.20;;;;;;;;;;5093345;28;20110;-57
2022/10/20 07:17:42;;;;;;;26.42;12.52;;;;;;;;;;5086412;28;20508;-57
2022/10/20 07:20:08;;;;;;;25.88;12.88;;;;;;;;;;5092987;28;20040;-56
2022/10/20 07:22:35;;;;;;;21.92;12.25;;;;;;;;;;5090949;28;20381;-56
2022/10/20 07:25:05;;;;;;;23.45;11.32;;;;;;;;;;5084272;28;20023;-57
2022/10/20 07:27:30;;;;;;;23.67;12.02;;;;;;;;;;5093325;28;20027;-57
2022/10/20 07:29:55;;;;;;;25.08;11.38;;;;;;;;;;5084770;28;20016;-57
2022/10/20 07:32:20;;;;;;;20.63;11.90;;;;;;;;;;5089480;28;20031;-57
2022/10/20 07:34:45;;;;;;;20.83;12.18;;;;;;;;;;5094556;28;20028;-56
2022/10/20 07:37:11;;;;;;;25.13;12.07;;;;;;;;;;5097947;28;20563;-57
2022/10/20 07:39:36;;;;;;;21.23;12.90;;;;;;;;;;5093158;28;20036;-57
2022/10/20 07:42:01;;;;;;;21.05;12.13;;;;;;;;;;5090171;28;20462;-56
2022/10/20 07:44:26;;;;;;;21.83;11.90;;;;;;;;;;5091457;28;20038;-57
2022/10/20 07:46:52;;;;;;;24.10;10.63;;;;;;;;;;5087328;28;20489;-57
2022/10/20 07:49:17;;;;;;;33.17;11.85;;;;;;;;;;5093630;28;20023;-56
2022/10/20 07:51:42;;;;;;;23.10;12.13;;;;;;;;;;5082012;28;20024;-56
2022/10/20 07:54:07;;;;;;;22.25;11.98;;;;;;;;;;5089844;28;20035;-57
2022/10/20 07:56:34;;;;;;;17.77;11.40;;;;;;;;;;5093285;28;20020;-56
2022/10/20 07:58:59;;;;;;;22.95;11.40;;;;;;;;;;5091600;28;20093;-57
2022/10/20 08:01:24;;;;;;;20.85;11.85;;;;;;;;;;5090402;28;20085;-55
2022/10/20 08:03:50;;;;;;;23.80;11.07;;;;;;;;;;5087028;28;20031;-55
2022/10/20 08:06:15;;;;;;;16.65;10.68;;;;;;;;;;5092519;28;20032;-57
2022/10/20 08:08:40;;;;;;;23.13;10.80;;;;;;;;;;5090050;28;20136;-57
2022/10/20 08:11:05;;;;;;;17.73;10.27;;;;;;;;;;5091518;28;20029;-57
2022/10/20 08:13:31;;;;;;;22.02;10.70;;;;;;;;;;5090797;28;20027;-57
2022/10/20 08:15:56;;;;;;;17.50;11.15;;;;;;;;;;5092083;28;20805;-57
2022/10/20 08:18:22;;;;;;;19.60;11.40;;;;;;;;;;5087108;28;20028;-57
2022/10/20 08:20:47;;;;;;;19.52;10.63;;;;;;;;;;5091595;28;20047;-56
2022/10/20 08:23:12;;;;;;;18.80;11.00;;;;;;;;;;5093406;28;20022;-55
2022/10/20 08:25:37;;;;;;;25.02;11.07;;;;;;;;;;5095698;28;20027;-57
2022/10/20 08:28:03;;;;;;;19.33;10.48;;;;;;;;;;5090112;28;20020;-56
2022/10/20 08:30:28;;;;;;;17.45;11.27;;;;;;;;;;5093524;28;20362;-57
2022/10/20 08:32:53;;;;;;;18.05;11.10;;;;;;;;;;5087606;28;20518;-57
2022/10/20 08:35:19;;;;;;;19.30;11.45;;;;;;;;;;5096126;28;20080;-56
2022/10/20 08:37:45;;;;;;;18.80;11.55;;;;;;;;;;5083716;28;20073;-56
2022/10/20 08:40:16;;;;;;;18.40;10.30;;;;;;;;;;5084910;28;20037;-57
2022/10/20 08:42:44;;;;;;;24.38;11.50;;;;;;;;;;5085512;28;20073;-56
2022/10/20 08:45:16;;;;;;;17.08;10.50;;;;;;;;;;5079395;28;20040;-56
2022/10/20 08:47:41;;;;;;;19.55;10.13;;;;;;;;;;5082265;28;20028;-56
2022/10/20 08:50:08;;;;;;;17.95;10.55;;;;;;;;;;5091850;28;20702;-56
2022/10/20 08:52:34;;;;;;;18.83;10.73;;;;;;;;;;5092348;28;20020;-56
2022/10/20 08:54:59;;;;;;;17.95;11.18;;;;;;;;;;5092951;28;20535;-57
2022/10/20 08:57:24;;;;;;;18.60;11.10;;;;;;;;;;5090736;28;20051;-55
2022/10/20 08:59:51;;;;;;;17.23;10.65;;;;;;;;;;5090192;28;20036;-57
2022/10/20 09:02:16;;;;;;;19.60;10.52;;;;;;;;;;5083941;28;20028;-55
2022/10/20 09:04:45;;;;;;;18.25;11.50;;;;;;;;;;5087915;28;20054;-56
2022/10/20 09:07:16;;;;;;;19.83;11.88;;;;;;;;;;5086829;28;20027;-57
2022/10/20 09:09:41;;;;;;;18.73;10.55;;;;;;;;;;5092016;28;20657;-56
2022/10/20 09:12:07;;;;;;;18.40;10.98;;;;;;;;;;5095401;28;20145;-56
2022/10/20 09:14:34;;;;;;;18.58;11.27;;;;;;;;;;5090739;28;20023;-56
2022/10/20 09:16:59;;;;;;;22.77;11.52;;;;;;;;;;5088899;28;20021;-56
2022/10/20 09:19:24;;;;;;;16.80;11.35;;;;;;;;;;5095303;28;20111;-56
2022/10/20 09:21:54;;;;;;;17.80;11.10;;;;;;;;;;5093015;28;20028;-57
2022/10/20 09:24:19;;;;;;;20.38;11.73;;;;;;;;;;5082005;28;20466;-57
2022/10/20 09:26:45;;;;;;;22.35;12.68;;;;;;;;;;5089202;28;20034;-57
2022/10/20 09:29:12;;;;;;;22.25;11.85;;;;;;;;;;5080433;28;20076;-56
2022/10/20 09:31:38;;;;;;;19.27;12.23;;;;;;;;;;5089816;28;20380;-56
2022/10/20 09:34:22;;;;;;;20.05;11.38;;;;;;;;;;5086255;28;20020;-57
2022/10/20 09:36:48;;;;;;;19.80;11.60;;;;;;;;;;5091868;28;20023;-57
2022/10/20 09:39:20;;;;;;;23.45;12.40;;;;;;;;;;5102101;28;20470;-56
2022/10/20 09:41:45;;;;;;;21.48;12.13;;;;;;;;;;5090793;27;20012;-56
2022/10/20 09:44:13;;;;;;;20.35;12.50;;;;;;;;;;5093017;28;20480;-57
2022/10/20 09:46:42;;;;;;;23.25;12.88;;;;;;;;;;5071063;28;20023;-56
2022/10/20 09:49:07;;;;;;;24.70;12.75;;;;;;;;;;5091108;28;20058;-57
2022/10/20 09:51:32;;;;;;;21.05;10.93;;;;;;;;;;5091447;28;20410;-56
2022/10/20 09:54:04;;;;;;;26.05;10.68;;;;;;;;;;5081881;28;20030;-57
2022/10/20 09:56:34;;;;;;;18.50;10.93;;;;;;;;;;5096892;28;20459;-57
2022/10/20 09:59:00;;;;;;;18.52;11.32;;;;;;;;;;5073651;28;20032;-57
2022/10/20 10:01:25;;;;;;;16.20;10.18;;;;;;;;;;5090355;28;20028;-57
2022/10/20 10:03:51;;;;;;;18.95;10.10;;;;;;;;;;5092531;28;20027;-57
2022/10/20 10:06:23;;;;;;;20.58;10.43;;;;;;;;;;5088969;28;20040;-57
2022/10/20 10:08:48;;;;;;;17.42;10.98;;;;;;;;;;5088252;28;20034;-56
2022/10/20 10:11:14;;;;;;;15.38;10.77;;;;;;;;;;5082687;28;20020;-56
2022/10/20 10:13:43;;;;;;;18.92;10.73;;;;;;;;;;5089762;28;20112;-57
2022/10/20 10:16:09;;;;;;;17.87;10.20;;;;;;;;;;5087003;28;20055;-57
2022/10/20 10:18:35;;;;;;;16.77;10.25;;;;;;;;;;5090403;28;20485;-56
2022/10/20 10:21:02;;;;;;;19.20;12.63;;;;;;;;;;5089576;28;20032;-55
2022/10/20 10:23:28;;;;;;;17.50;10.55;;;;;;;;;;5092204;28;20406;-57
2022/10/20 10:25:53;;;;;;;18.52;11.25;;;;;;;;;;5092819;28;20028;-55
2022/10/20 10:28:27;;;;;;;18.95;10.55;;;;;;;;;;5089310;28;20027;-56
2022/10/20 10:31:04;;;;;;;16.73;10.48;;;;;;;;;;5084525;28;20020;-57
2022/10/20 10:33:31;;;;;;;19.38;10.90;;;;;;;;;;5079577;28;20460;-56
2022/10/20 10:35:57;;;;;;;21.17;12.00;;;;;;;;;;5091423;28;20485;-56
2022/10/20 10:38:22;;;;;;;26.80;12.00;;;;;;;;;;5095826;28;20027;-56
2022/10/20 10:40:51;;;;;;;22.30;11.77;;;;;;;;;;5091447;28;20020;-57
2022/10/20 10:43:28;;;;;;;17.75;11.07;;;;;;;;;;5086173;28;20012;-57
2022/10/20 10:46:00;;;;;;;15.20;9.20;;;;;;;;;;5092968;28;20039;-57
2022/10/20 10:48:31;;;;;;;18.25;12.60;;;;;;;;;;5085243;28;20020;-57
2022/10/20 10:50:57;;;;;;;21.73;12.18;;;;;;;;;;5086669;28;20036;-56
2022/10/20 10:53:25;;;;;;;18.83;11.82;;;;;;;;;;5084337;28;20047;-56
2022/10/20 10:55:57;;;;;;;18.30;12.32;;;;;;;;;;5080839;28;20055;-56
2022/10/20 10:58:22;;;;;;;22.67;13.68;;;;;;;;;;5089006;28;20059;-56
2022/10/20 11:00:56;;;;;;;21.77;13.48;;;;;;;;;;5081527;28;20043;-57
2022/10/20 11:03:40;;;;;;;28.75;13.95;;;;;;;;;;5084889;28;20054;-56
2022/10/20 11:06:20;;;;;;;20.67;13.07;;;;;;;;;;5088203;28;20044;-55
2022/10/20 11:08:49;;;;;;;20.70;13.70;;;;;;;;;;5086685;28;20111;-56
2022/10/20 11:11:17;;;;;;;26.75;15.90;;;;;;;;;;5088587;28;20084;-54
2022/10/20 11:13:45;;;;;;;21.17;16.33;;;;;;;;;;5080370;28;20234;-56
2022/10/20 11:16:16;;;;;;;24.25;14.32;;;;;;;;;;5088578;28;20038;-55
2022/10/20 11:19:00;;;;;;;20.80;12.85;;;;;;;;;;5088322;28;20024;-55
2022/10/20 11:21:28;;;;;;;23.73;13.05;;;;;;;;;;5096938;28;20024;-56
2022/10/20 11:23:53;;;;;;;35.22;17.63;;;;;;;;;;5092610;28;20103;-55
2022/10/20 11:26:18;;;;;;;27.20;15.20;;;;;;;;;;5084319;28;20111;-55
2022/10/20 11:28:44;;;;;;;26.67;17.17;;;;;;;;;;5091591;28;20031;-56
2022/10/20 11:31:28;;;;;;;22.70;15.32;;;;;;;;;;5073118;28;20024;-56
2022/10/20 11:33:56;;;;;;;21.55;13.63;;;;;;;;;;5090064;28;20027;-56
2022/10/20 11:36:21;;;;;;;28.88;13.88;;;;;;;;;;5089510;28;20024;-56
2022/10/20 11:38:50;;;;;;;19.75;12.38;;;;;;;;;;5081425;28;20043;-55
2022/10/20 11:41:34;;;;;;;21.20;11.07;;;;;;;;;;5084939;28;20019;-56
2022/10/20 11:43:59;;;;;;;22.13;11.55;;;;;;;;;;5087693;28;20032;-55
2022/10/20 11:46:33;;;;;;;23.30;12.13;;;;;;;;;;5094356;28;20031;-57
2022/10/20 11:48:59;;;;;;;18.45;10.82;;;;;;;;;;5081787;28;20024;-57
2022/10/20 11:51:38;;;;;;;17.63;11.23;;;;;;;;;;5079164;28;20538;-56
2022/10/20 11:54:22;;;;;;;16.65;10.77;;;;;;;;;;5083307;28;20329;-56
2022/10/20 11:56:47;;;;;;;15.63;9.95;;;;;;;;;;5090313;28;20608;-55
2022/10/20 11:59:28;;;;;;;26.95;11.23;;;;;;;;;;5096123;28;20033;-56
2022/10/20 12:02:13;;;;;;;19.80;10.32;;;;;;;;;;5083027;28;20043;-57
2022/10/20 12:04:44;;;;;;;19.83;11.25;;;;;;;;;;5095974;28;20641;-56
2022/10/20 12:07:16;;;;;;;24.02;13.32;;;;;;;;;;5092652;28;20032;-55
2022/10/20 12:09:57;;;;;;;28.83;14.88;;;;;;;;;;5087652;28;20071;-56
2022/10/20 12:12:22;;;;;;;;;;;;;;;;;;5092598;28;20113;-56
2022/10/20 12:14:49;;;;;;;25.70;13.57;;;;;;;;;;5091752;28;19908;-56
2022/10/20 12:17:20;;;;;;;20.35;14.25;;;;;;;;;;5088259;28;20033;-56
2022/10/20 12:19:47;;;;;;;23.08;15.40;;;;;;;;;;5096099;28;20068;-56
2022/10/20 12:22:13;;;;;;;28.35;15.20;;;;;;;;;;5092205;28;20445;-56
2022/10/20 12:24:38;;;;;;;26.00;14.98;;;;;;;;;;5084449;28;20042;-56
2022/10/20 12:27:14;;;;;;;27.70;14.90;;;;;;;;;;5089352;28;20347;-57
2022/10/20 12:29:42;;;;;;;26.05;15.98;;;;;;;;;;5092527;28;20081;-57
2022/10/20 12:32:26;;;;;;;22.40;14.85;;;;;;;;;;5096572;28;20117;-56
2022/10/20 12:35:12;;;;;;;30.27;15.38;;;;;;;;;;5081351;28;20093;-57
2022/10/20 12:37:37;;;;;;;33.55;17.73;;;;;;;;;;5035882;28;20035;-56
2022/10/20 12:40:05;;;;;;;36.05;16.67;;;;;;;;;;5090804;28;20036;-56
2022/10/20 12:42:31;;;;;;;29.35;16.80;;;;;;;;;;5092491;28;20016;-56
2022/10/20 12:45:14;;;;;;;33.92;17.20;;;;;;;;;;5098522;28;20030;-56
2022/10/20 12:47:40;;;;;;;29.38;17.48;;;;;;;;;;5094927;28;20054;-57
2022/10/20 12:50:19;;;;;;;29.42;17.45;;;;;;;;;;5086923;28;20101;-56
2022/10/20 12:52:44;;;;;;;35.15;17.70;;;;;;;;;;5065959;28;20038;-56
2022/10/20 12:55:29;;;;;;;30.02;17.33;;;;;;;;;;5086343;28;20031;-58
2022/10/20 12:58:08;;;;;;;28.15;17.55;;;;;;;;;;5086560;28;20068;-56
2022/10/20 13:00:34;;;;;;;23.50;16.53;;;;;;;;;;5087358;28;20028;-55
2022/10/20 13:02:59;;;;;;;30.15;19.27;;;;;;;;;;5094136;28;20023;-57
2022/10/20 13:05:27;;;;;;;29.90;18.67;;;;;;;;;;5093326;28;20083;-55
2022/10/20 13:07:52;;;;;;;35.50;18.67;;;;;;;;;;5090728;28;20668;-55
2022/10/20 13:10:30;;;;;;;26.85;16.27;;;;;;;;;;5094951;28;20028;-56
2022/10/20 13:13:01;;;;;;;23.52;16.30;;;;;;;;;;5098683;28;20024;-56
2022/10/20 13:15:30;;;;;;;24.85;15.75;;;;;;;;;;5096364;28;20030;-56
2022/10/20 13:18:03;;;;;;;25.65;16.75;;;;;;;;;;5084195;28;20532;-56
2022/10/20 13:20:47;;;;;;;26.77;16.52;;;;;;;;;;5095405;28;20040;-58
2022/10/20 13:23:16;;;;;;;28.67;17.20;;;;;;;;;;5082346;28;20389;-58
2022/10/20 13:25:51;;;;;;;35.47;18.52;;;;;;;;;;5089813;28;20519;-57
2022/10/20 13:28:23;;;;;;;31.90;17.60;;;;;;;;;;5082747;28;20153;-57
2022/10/20 13:30:48;;;;;;;25.70;17.80;;;;;;;;;;5084076;28;20103;-57
2022/10/20 13:33:22;;;;;;;32.00;18.85;;;;;;;;;;5089539;28;20127;-57
2022/10/20 13:35:59;;;;;;;26.83;18.58;;;;;;;;;;5083372;28;20119;-57
2022/10/20 13:38:43;;;;;;;32.83;16.42;;;;;;;;;;5087652;28;20020;-58
2022/10/20 13:41:19;;;;;;;37.38;19.20;;;;;;;;;;5100815;27;20024;-56
2022/10/20 13:43:50;;;;;;;30.85;18.45;;;;;;;;;;5074282;28;20063;-56
2022/10/20 13:46:34;;;;;;;39.03;20.00;;;;;;;;;;5094671;28;20458;-56
2022/10/20 13:48:59;;;;;;;33.83;19.70;;;;;;;;;;5097875;28;20028;-57
2022/10/20 13:51:25;;;;;;;40.38;21.98;;;;;;;;;;5092293;28;20016;-57
2022/10/20 13:53:51;;;;;;;33.85;20.17;;;;;;;;;;5093164;28;20462;-58
2022/10/20 13:56:17;;;;;;;34.15;20.92;;;;;;;;;;5092967;28;20072;-58
2022/10/20 13:58:56;;;;;;;34.15;20.88;;;;;;;;;;5084449;28;20019;-58
2022/10/20 14:01:24;;;;;;;33.20;21.05;;;;;;;;;;5092747;28;20461;-57
2022/10/20 14:03:49;;;;;;;33.42;22.77;;;;;;;;;;5089104;28;20020;-57
2022/10/20 14:06:30;;;;;;;35.53;21.02;;;;;;;;;;5087188;28;20050;-56
2022/10/20 14:08:57;;;;;;;33.85;22.17;;;;;;;;;;5084138;28;20024;-58
2022/10/20 14:11:22;;;;;;;39.97;21.65;;;;;;;;;;5087399;28;20020;-56
2022/10/20 14:13:47;;;;;;;41.00;22.05;;;;;;;;;;5083963;28;20065;-58
2022/10/20 14:16:17;;;;;;;46.40;23.25;;;;;;;;;;5083895;28;20373;-57
2022/10/20 14:18:42;;;;;;;38.97;23.00;;;;;;;;;;5089241;28;20036;-57
2022/10/20 14:21:14;;;;;;;41.75;22.65;;;;;;;;;;5089606;28;20135;-57